KREO/REO METAR and TAF weather

Enter ICAO airport designator
Station Type Date Time Source
KREO METAR 2021/04/13 07:52 UTC NOAA

KREO 130752Z AUTO 08004KT 00/M14 A2997 RMK AO1 SLP154 T00001144


Station Type Date Time Source
KREO Decoded METAR 2021/04/13 07:52 UTC NOAA

ROME, OR, United States (KREO) 42-35N 117-52W 1235M
Apr 13, 2021 - 03:52 AM EDT / 2021.04.13 0752 UTC
Wind: from the E (080 degrees) at 5 MPH (4 KT):0
Temperature: 32.0 F (0.0 C)
Windchill: 26 F (-3 C):1
Dew Point: 6.1 F (-14.4 C)
Relative Humidity: 32%
Pressure (altimeter): 29.97 in. Hg (1014 hPa)
ob: KREO 130752Z AUTO 08004KT 00/M14 A2997 RMK AO1 SLP154 T00001144
cycle: 8

Station Type Date Time Source
KREO TAF UTC NOAA

Error!

Example: see airport list